Nanjing, China
Current Conditions -  °F | °C
As of 4:00 AM on Saturday 20 Dec 2014 (Local Time) from ZSNJ Reporting Station
Haze Haze  
Wind Chill: 30°   Ceiling: Unl
Heat Index: 34°   Visibility: 2.2mi
Dew Point: 32°   Wind: 4mph
Humidity: 93%   Direction: 350°N
Pressure: 30.33"   Gusts: NA
Location:  32.05°N, 118.78°E
Report Text: ZSNJ 192000Z 35002MPS 3600 BR NSC 01/M00 Q1027 NOSIG
Loading
Personal Weather Stations






























Interactive Weather Map New forecast layout! Learn more

10-Day Weather Forecast

Advertisements
Track Severe Weather on mobile